Terminal Aerodrome Forecast
Issued by NWS

Home | Current Version | Previous Version | Text Only | Print | Product List | Glossary On
Versions: 1 2 3 4 5 6 7 8 9 10 11 12 13 14
000
FTUS44 KOHX 271100
TAFCKV
TAF
KCKV 271133Z 2712/2812 34007KT P6SM SCT035
     FM271500 36008KT P6SM BKN035
     FM271800 01008KT P6SM SCT040 BKN250
     FM280200 02005KT P6SM OVC100=

USA.gov is the U.S. government's official web portal to all federal, state and local government web resources and services.